OLA weather

Ørland Airport
Ørland, Sør-Trøndelag, Norway

Public forecast

Using degrees Celsius for public forecast. Weather courtesy of forecast.io.

METAR (pilot weather report)

Retrieved 2019/07/21 06:20 UTC (0 seconds ago):

ENOL 210620Z 13017KT 9999 FEW030 SCT080 19/13 Q1006 NOSIG

TAF (pilot weather forecast)

Retrieved 2019/07/21 06:57 UTC (0 seconds ago):

TAF ENOL 210500Z 2106/2206 13015KT 9999 FEW025 BKN100 TEMPO 2112/2120 SHRA BKN030CB BECMG 2114/2116 27008KT BECMG 2117/2120 BKN014 TEMPO 2120/2206 1500 RADZ BR BKN008